createdAt,value
2019-03-24T00:01:56.120Z,15.23
2019-03-24T00:04:24.084Z,15.57
2019-03-24T00:06:52.097Z,15.70
2019-03-24T00:09:20.203Z,14.83
2019-03-24T00:11:48.237Z,14.37
2019-03-24T00:14:16.268Z,15.70
2019-03-24T00:16:44.135Z,15.07
2019-03-24T00:19:12.111Z,15.37
2019-03-24T00:21:40.054Z,15.13
2019-03-24T00:24:07.938Z,14.47
2019-03-24T00:26:35.992Z,14.10
2019-03-24T00:29:03.934Z,13.03
2019-03-24T00:31:31.899Z,13.37
2019-03-24T00:33:59.930Z,14.50
2019-03-24T00:36:28.107Z,14.17
2019-03-24T00:38:56.259Z,14.77
2019-03-24T00:41:24.155Z,13.93
2019-03-24T00:43:52.165Z,14.27
2019-03-24T00:46:20.104Z,13.90
2019-03-24T00:48:47.963Z,13.50
2019-03-24T00:51:15.923Z,14.10
2019-03-24T00:53:43.772Z,13.77
2019-03-24T00:56:11.740Z,13.53
2019-03-24T00:58:39.721Z,13.73
2019-03-24T01:01:07.867Z,13.70
2019-03-24T01:03:35.865Z,13.77
2019-03-24T01:06:03.832Z,13.93
2019-03-24T01:08:31.808Z,13.27
2019-03-24T01:10:59.892Z,13.10
2019-03-24T01:13:27.830Z,13.87
2019-03-24T01:15:55.801Z,13.37
2019-03-24T01:18:23.815Z,11.73
2019-03-24T01:20:51.762Z,13.00
2019-03-24T01:23:19.700Z,13.23
2019-03-24T01:25:47.485Z,13.17
2019-03-24T01:28:15.446Z,13.97
2019-03-24T01:30:43.415Z,13.73
2019-03-24T01:33:11.357Z,12.37
2019-03-24T01:35:39.265Z,13.60
2019-03-24T01:38:07.223Z,12.77
2019-03-24T01:40:35.451Z,13.23
2019-03-24T01:43:03.432Z,13.37
2019-03-24T01:45:31.479Z,12.77
2019-03-24T01:47:59.366Z,12.73
2019-03-24T01:50:27.320Z,12.60
2019-03-24T01:52:55.360Z,12.57
2019-03-24T01:55:25.258Z,12.40
2019-03-24T01:57:53.317Z,11.93
2019-03-24T02:00:21.320Z,12.20
2019-03-24T02:02:49.235Z,12.50
2019-03-24T02:05:17.393Z,12.80
2019-03-24T02:07:45.419Z,12.53
2019-03-24T02:10:13.730Z,12.23
2019-03-24T02:12:41.761Z,12.70
2019-03-24T02:15:10.140Z,12.50
2019-03-24T02:17:38.201Z,12.40
2019-03-24T02:20:07.350Z,12.37
2019-03-24T02:22:35.357Z,12.53
2019-03-24T02:25:03.542Z,11.60
2019-03-24T02:27:31.558Z,12.33
2019-03-24T02:29:59.420Z,11.13
2019-03-24T02:32:27.366Z,11.87
2019-03-24T02:34:55.328Z,11.37
2019-03-24T02:37:23.306Z,11.27
2019-03-24T02:39:51.282Z,12.00
2019-03-24T02:42:19.251Z,10.70
2019-03-24T02:44:47.160Z,11.27
2019-03-24T02:47:15.240Z,11.33
2019-03-24T02:49:43.201Z,10.63
2019-03-24T02:52:11.290Z,10.63
2019-03-24T02:54:39.294Z,11.50
2019-03-24T02:57:07.206Z,11.37
2019-03-24T02:59:35.220Z,11.73
2019-03-24T03:02:03.262Z,11.10
2019-03-24T03:04:31.225Z,11.50
2019-03-24T03:06:59.137Z,10.87
2019-03-24T03:09:27.022Z,11.50
2019-03-24T03:11:54.865Z,10.80
2019-03-24T03:14:22.844Z,11.20
2019-03-24T03:16:50.751Z,11.67
2019-03-24T03:19:18.678Z,11.27
2019-03-24T03:21:46.605Z,11.60
2019-03-24T03:24:14.610Z,11.47
2019-03-24T03:26:42.514Z,11.07
2019-03-24T03:29:10.452Z,11.13
2019-03-24T03:31:38.441Z,11.23
2019-03-24T03:34:06.602Z,10.53
2019-03-24T03:36:34.639Z,10.67
2019-03-24T03:39:04.168Z,11.20
2019-03-24T03:41:31.770Z,11.13
2019-03-24T03:43:59.749Z,11.17
2019-03-24T03:46:27.729Z,11.53
2019-03-24T03:48:55.774Z,11.43
2019-03-24T03:51:23.774Z,10.80
2019-03-24T03:53:51.716Z,10.73
2019-03-24T03:56:19.792Z,11.07
2019-03-24T03:58:47.521Z,10.83
2019-03-24T04:01:15.705Z,10.77
2019-03-24T04:03:43.705Z,11.40
2019-03-24T04:06:11.633Z,10.53
2019-03-24T04:08:39.593Z,10.57
2019-03-24T04:11:07.670Z,11.23
2019-03-24T04:13:35.575Z,10.13
2019-03-24T04:16:03.630Z,10.30
2019-03-24T04:18:31.616Z,10.50
2019-03-24T04:20:59.611Z,10.97
2019-03-24T04:23:27.641Z,10.47
2019-03-24T04:25:55.678Z,10.23
2019-03-24T04:28:23.611Z,9.80
2019-03-24T04:30:51.580Z,10.53
2019-03-24T04:33:19.477Z,10.80
2019-03-24T04:35:47.454Z,10.40
2019-03-24T04:38:15.422Z,10.83
2019-03-24T04:40:43.379Z,10.43
2019-03-24T04:43:11.362Z,10.40
2019-03-24T04:45:39.266Z,9.90
2019-03-24T04:48:07.207Z,10.43
2019-03-24T04:50:35.156Z,10.10
2019-03-24T04:53:03.065Z,10.03
2019-03-24T04:55:31.134Z,10.07
2019-03-24T04:57:59.165Z,10.30
2019-03-24T05:00:40.253Z,10.40
2019-03-24T05:03:08.720Z,10.07
2019-03-24T05:05:37.623Z,10.33
2019-03-24T05:08:05.908Z,9.80
2019-03-24T05:10:33.860Z,9.67
2019-03-24T05:13:01.908Z,9.67
2019-03-24T05:15:29.918Z,9.60
2019-03-24T05:17:57.910Z,9.83
2019-03-24T05:20:25.927Z,9.97
2019-03-24T05:22:54.053Z,9.87
2019-03-24T05:25:23.688Z,10.03
2019-03-24T05:27:51.769Z,9.70
2019-03-24T05:30:19.695Z,8.90
2019-03-24T05:32:47.741Z,9.77
2019-03-24T05:35:15.596Z,8.87
2019-03-24T05:37:43.607Z,9.30
2019-03-24T05:40:11.629Z,8.97
2019-03-24T05:42:39.542Z,9.40
2019-03-24T05:45:07.769Z,9.77
2019-03-24T05:47:37.395Z,9.63
2019-03-24T05:50:05.694Z,9.30
2019-03-24T05:52:33.357Z,8.80
2019-03-24T05:55:01.215Z,9.73
2019-03-24T05:57:29.871Z,9.90
2019-03-24T05:59:57.937Z,9.33
2019-03-24T06:02:26.028Z,10.13
2019-03-24T06:04:53.988Z,9.30
2019-03-24T06:07:21.965Z,9.73
2019-03-24T06:09:50.015Z,9.50
2019-03-24T06:12:17.983Z,9.70
2019-03-24T06:14:45.887Z,9.77
2019-03-24T06:17:13.891Z,9.33
2019-03-24T06:19:41.801Z,9.67
2019-03-24T06:22:09.752Z,9.60
2019-03-24T06:24:37.718Z,9.43
2019-03-24T06:27:05.729Z,9.67
2019-03-24T06:29:33.785Z,9.47
2019-03-24T06:32:01.824Z,9.93
2019-03-24T06:34:29.799Z,9.93
2019-03-24T06:36:57.690Z,10.13
2019-03-24T06:39:25.713Z,10.07
2019-03-24T06:41:53.768Z,10.37
2019-03-24T06:44:21.735Z,9.33
2019-03-24T06:46:49.687Z,9.67
2019-03-24T06:49:20.560Z,10.50
2019-03-24T06:51:48.561Z,9.93
2019-03-24T06:54:16.587Z,10.33
2019-03-24T06:57:12.327Z,10.60
2019-03-24T06:59:40.292Z,10.30
2019-03-24T07:02:08.311Z,9.80
2019-03-24T07:04:36.109Z,10.50
2019-03-24T07:07:04.088Z,10.60
2019-03-24T07:09:31.966Z,10.77
2019-03-24T07:12:00.244Z,10.07
2019-03-24T07:14:30.236Z,10.17
2019-03-24T07:16:58.162Z,10.53
2019-03-24T07:19:25.984Z,10.87
2019-03-24T07:21:53.794Z,10.87
2019-03-24T07:24:21.890Z,10.87
2019-03-24T07:26:49.896Z,11.27
2019-03-24T07:29:17.986Z,11.27
2019-03-24T07:31:46.016Z,12.60
2019-03-24T07:34:14.099Z,12.03
2019-03-24T07:36:42.195Z,12.37
2019-03-24T07:39:10.240Z,12.57
2019-03-24T07:41:40.232Z,13.13
2019-03-24T07:44:08.482Z,13.47
2019-03-24T07:46:36.512Z,14.63
2019-03-24T07:49:04.450Z,15.07
2019-03-24T07:51:32.386Z,14.90
2019-03-24T07:54:00.526Z,15.27
2019-03-24T07:56:28.662Z,14.00
2019-03-24T07:58:56.731Z,14.90
2019-03-24T08:01:27.202Z,15.67
2019-03-24T08:03:56.147Z,16.63
2019-03-24T08:06:26.842Z,16.40
2019-03-24T08:08:54.754Z,15.60
2019-03-24T08:11:23.164Z,15.77
2019-03-24T08:13:53.906Z,15.87
2019-03-24T08:16:21.325Z,15.73
2019-03-24T08:18:49.326Z,16.30
2019-03-24T08:21:17.383Z,14.87
2019-03-24T08:23:45.535Z,16.53
2019-03-24T08:26:13.689Z,15.87
2019-03-24T08:28:41.802Z,15.93
2019-03-24T08:31:09.841Z,13.87
2019-03-24T08:33:38.010Z,15.60
2019-03-24T08:36:08.944Z,16.23
2019-03-24T08:38:37.164Z,16.03
2019-03-24T08:41:05.182Z,15.83
2019-03-24T08:43:33.481Z,16.00
2019-03-24T08:46:01.649Z,13.23
2019-03-24T08:48:40.140Z,13.77
2019-03-24T08:51:00.659Z,16.37
2019-03-24T08:53:28.542Z,15.67
2019-03-24T08:55:56.663Z,12.77
2019-03-24T08:58:24.930Z,15.90
2019-03-24T09:00:52.924Z,16.90
2019-03-24T09:03:40.159Z,15.63
2019-03-24T09:06:08.152Z,15.00
2019-03-24T09:08:36.114Z,16.77
2019-03-24T09:11:04.128Z,15.43
2019-03-24T09:13:32.052Z,17.63
2019-03-24T09:15:59.823Z,15.43
2019-03-24T09:18:27.875Z,15.70
2019-03-24T09:20:55.979Z,15.03
2019-03-24T09:23:24.072Z,15.07
2019-03-24T09:25:52.172Z,15.63
2019-03-24T09:28:20.174Z,16.10
2019-03-24T09:30:48.679Z,16.00
2019-03-24T09:33:16.901Z,15.33
2019-03-24T09:35:44.922Z,16.67
2019-03-24T09:38:33.070Z,15.13
2019-03-24T09:41:04.560Z,15.93
2019-03-24T09:43:33.557Z,16.17
2019-03-24T09:46:01.551Z,17.57
2019-03-24T09:48:35.461Z,18.13
2019-03-24T09:51:03.594Z,18.43
2019-03-24T09:53:31.589Z,18.60
2019-03-24T09:55:59.640Z,17.93
2019-03-24T09:58:27.693Z,17.73
2019-03-24T10:00:55.860Z,19.20
2019-03-24T10:03:23.861Z,18.93
2019-03-24T10:05:51.803Z,17.77
2019-03-24T10:08:19.741Z,19.03
2019-03-24T10:10:47.693Z,19.10
2019-03-24T10:13:15.949Z,20.15
2019-03-24T10:15:43.874Z,19.07
2019-03-24T10:18:11.779Z,21.37
2019-03-24T10:20:39.680Z,20.43
2019-03-24T10:23:07.617Z,20.60
2019-03-24T10:25:35.749Z,20.85
2019-03-24T10:28:03.744Z,19.90
2019-03-24T10:30:31.826Z,20.27
2019-03-24T10:32:59.688Z,20.57
2019-03-24T10:35:27.843Z,20.62
2019-03-24T10:37:55.767Z,20.40
2019-03-24T10:40:28.582Z,21.93
2019-03-24T10:42:53.505Z,22.02
2019-03-24T10:45:21.393Z,22.10
2019-03-24T10:47:49.434Z,23.07
2019-03-24T10:50:17.440Z,22.42
2019-03-24T10:52:45.390Z,23.22
2019-03-24T10:55:13.725Z,23.25
2019-03-24T10:57:41.726Z,22.62
2019-03-24T11:00:12.258Z,22.52
2019-03-24T11:02:41.092Z,24.25
2019-03-24T11:05:11.330Z,24.32
2019-03-24T11:07:39.458Z,23.22
2019-03-24T11:10:08.607Z,23.25
2019-03-24T11:12:36.702Z,24.23
2019-03-24T11:15:06.212Z,23.98
2019-03-24T11:17:34.386Z,23.87
2019-03-24T11:20:04.342Z,23.00
2019-03-24T11:22:32.509Z,23.33
2019-03-24T11:25:00.607Z,23.57
2019-03-24T11:27:29.150Z,23.50
2019-03-24T11:29:57.322Z,23.27
2019-03-24T11:32:25.662Z,23.13
2019-03-24T11:34:54.168Z,24.37
2019-03-24T11:37:22.368Z,23.40
2019-03-24T11:39:50.574Z,23.07
2019-03-24T11:42:18.797Z,23.73
2019-03-24T11:44:46.784Z,23.30
2019-03-24T11:47:14.827Z,26.60
2019-03-24T11:49:46.170Z,25.37
2019-03-24T11:52:12.852Z,23.50
2019-03-24T11:54:40.973Z,23.93
2019-03-24T11:57:09.100Z,24.13
2019-03-24T11:59:37.191Z,25.30
2019-03-24T12:02:05.312Z,25.30
2019-03-24T12:04:33.395Z,25.00
2019-03-24T12:07:01.544Z,24.23
2019-03-24T12:09:29.606Z,25.73
2019-03-24T12:11:58.101Z,24.97
2019-03-24T12:14:26.318Z,29.33
2019-03-24T12:16:54.372Z,26.57
2019-03-24T12:19:23.459Z,23.70
2019-03-24T12:21:51.815Z,23.77
2019-03-24T12:24:19.725Z,22.40
2019-03-24T12:26:47.683Z,22.33
2019-03-24T12:29:15.657Z,24.03
2019-03-24T12:31:43.659Z,23.83
2019-03-24T12:34:12.110Z,22.33
2019-03-24T12:36:40.187Z,20.70
2019-03-24T12:39:09.079Z,22.30
2019-03-24T12:41:37.129Z,22.10
2019-03-24T12:44:05.128Z,24.30
2019-03-24T12:46:32.895Z,22.87
2019-03-24T12:49:00.723Z,22.40
2019-03-24T12:51:28.701Z,25.10
2019-03-24T12:53:56.577Z,22.30
2019-03-24T12:56:24.616Z,21.43
2019-03-24T12:58:52.498Z,23.37
2019-03-24T13:01:20.408Z,23.07
2019-03-24T13:03:48.405Z,24.03
2019-03-24T13:06:16.365Z,26.20
2019-03-24T13:08:44.396Z,24.20
2019-03-24T13:11:12.486Z,21.53
2019-03-24T13:13:40.410Z,23.73
2019-03-24T13:16:08.425Z,20.57
2019-03-24T13:18:36.528Z,21.87
2019-03-24T13:21:04.537Z,18.67
2019-03-24T13:23:32.835Z,21.57
2019-03-24T13:26:00.885Z,22.80
2019-03-24T13:28:28.847Z,21.47
2019-03-24T13:30:57.589Z,20.63
2019-03-24T13:33:25.451Z,21.37
2019-03-24T13:36:04.765Z,23.33
2019-03-24T13:38:32.728Z,19.67
2019-03-24T13:41:05.917Z,21.00
2019-03-24T13:43:33.911Z,23.13
2019-03-24T13:46:01.811Z,18.87
2019-03-24T13:48:29.787Z,21.87
2019-03-24T13:50:57.763Z,27.43
2019-03-24T13:53:25.759Z,22.37
2019-03-24T13:55:53.720Z,19.83
2019-03-24T13:58:21.738Z,21.13
2019-03-24T14:00:49.972Z,19.60
2019-03-24T14:03:17.886Z,19.23
2019-03-24T14:05:45.850Z,17.77
2019-03-24T14:08:13.614Z,21.73
2019-03-24T14:10:41.455Z,20.30
2019-03-24T14:13:09.711Z,19.70
2019-03-24T14:15:37.899Z,20.93
2019-03-24T14:18:06.247Z,19.27
2019-03-24T14:20:42.694Z,20.67
2019-03-24T14:23:04.525Z,19.37
2019-03-24T14:25:32.630Z,19.60
2019-03-24T14:28:00.798Z,20.97
2019-03-24T14:33:52.039Z,19.20
2019-03-24T14:36:20.202Z,18.70
2019-03-24T14:38:48.179Z,16.97
2019-03-24T14:41:16.169Z,18.77
2019-03-24T14:43:44.192Z,18.40
2019-03-24T14:46:12.347Z,19.47
2019-03-24T14:48:40.437Z,19.83
2019-03-24T14:51:08.502Z,20.37
2019-03-24T14:53:36.519Z,19.10
2019-03-24T14:56:04.664Z,20.87
2019-03-24T14:58:32.593Z,23.83
2019-03-24T15:01:00.544Z,20.00
2019-03-24T15:03:28.396Z,17.93
2019-03-24T15:05:56.389Z,18.57
2019-03-24T15:08:24.311Z,17.40
2019-03-24T15:10:52.309Z,18.57
2019-03-24T15:13:20.239Z,19.07
2019-03-24T15:15:48.202Z,17.23
2019-03-24T15:18:16.189Z,19.10
2019-03-24T15:20:44.127Z,18.57
2019-03-24T15:23:12.127Z,19.10
2019-03-24T15:25:40.071Z,17.17
2019-03-24T15:28:08.061Z,17.17
2019-03-24T15:30:36.141Z,16.60
2019-03-24T15:33:04.167Z,16.80
2019-03-24T15:35:32.127Z,17.27
2019-03-24T15:38:08.063Z,17.43
2019-03-24T15:40:29.978Z,16.47
2019-03-24T15:42:58.073Z,16.20
2019-03-24T15:45:26.021Z,16.07
2019-03-24T15:47:54.190Z,16.73
2019-03-24T15:50:22.091Z,16.60
2019-03-24T15:52:50.041Z,17.77
2019-03-24T15:55:21.056Z,18.13
2019-03-24T15:57:49.077Z,15.70
2019-03-24T16:00:31.163Z,16.90
2019-03-24T16:02:59.345Z,17.03
2019-03-24T16:05:30.032Z,16.07
2019-03-24T16:07:58.012Z,14.83
2019-03-24T16:10:34.844Z,17.17
2019-03-24T16:12:55.908Z,15.97
2019-03-24T16:15:24.247Z,15.80
2019-03-24T16:17:52.171Z,17.20
2019-03-24T16:20:20.058Z,16.60
2019-03-24T16:22:48.040Z,15.53
2019-03-24T16:25:16.113Z,15.93
2019-03-24T16:27:48.245Z,18.00
2019-03-24T16:30:16.190Z,17.00
2019-03-24T16:32:44.049Z,16.37
2019-03-24T16:35:20.623Z,17.43
2019-03-24T16:37:48.605Z,18.63
2019-03-24T16:40:16.612Z,18.10
2019-03-24T16:42:44.735Z,17.97
2019-03-24T16:45:12.890Z,16.90
2019-03-24T16:47:40.907Z,15.20
2019-03-24T16:50:09.023Z,16.63
2019-03-24T16:52:36.987Z,15.53
2019-03-24T16:55:05.268Z,16.53
2019-03-24T16:57:33.335Z,17.80
2019-03-24T17:00:01.200Z,16.37
2019-03-24T17:02:29.146Z,17.53
2019-03-24T17:04:57.051Z,17.60
2019-03-24T17:07:24.989Z,19.03
2019-03-24T17:09:52.959Z,18.00
2019-03-24T17:12:20.855Z,18.13
2019-03-24T17:14:48.706Z,17.47
2019-03-24T17:17:16.582Z,17.80
2019-03-24T17:19:44.459Z,19.33
2019-03-24T17:22:12.631Z,19.23
2019-03-24T17:24:40.639Z,19.90
2019-03-24T17:27:08.728Z,20.63
2019-03-24T17:29:36.697Z,19.87
2019-03-24T17:32:04.710Z,19.70
2019-03-24T17:34:32.756Z,19.80
2019-03-24T17:37:00.832Z,18.80
2019-03-24T17:39:29.081Z,20.77
2019-03-24T17:41:57.225Z,21.30
2019-03-24T17:44:25.239Z,20.50
2019-03-24T17:46:53.241Z,19.33
2019-03-24T17:49:24.019Z,22.73
2019-03-24T17:52:00.459Z,19.53
2019-03-24T17:54:21.846Z,20.53
2019-03-24T17:56:50.213Z,21.93
2019-03-24T17:59:18.655Z,21.57
2019-03-24T18:01:46.863Z,23.00
2019-03-24T18:04:15.244Z,22.83
2019-03-24T18:06:43.416Z,23.03
2019-03-24T18:09:11.922Z,23.23
2019-03-24T18:11:40.601Z,23.63
2019-03-24T18:14:08.951Z,19.43
2019-03-24T18:16:45.786Z,23.93
2019-03-24T18:19:13.826Z,23.63
2019-03-24T18:21:42.368Z,25.50
2019-03-24T18:24:10.391Z,24.03
2019-03-24T18:26:38.741Z,22.13
2019-03-24T18:29:06.776Z,23.37
2019-03-24T18:31:34.753Z,24.47
2019-03-24T18:34:02.912Z,24.40
2019-03-24T18:36:30.931Z,24.03
2019-03-24T18:38:59.402Z,22.37
2019-03-24T18:43:57.767Z,25.50
2019-03-24T18:46:26.823Z,25.90
2019-03-24T18:48:55.035Z,24.77
2019-03-24T18:51:24.989Z,26.73
2019-03-24T18:53:53.291Z,25.60
2019-03-24T18:56:21.612Z,26.07
2019-03-24T18:58:49.963Z,25.77
2019-03-24T19:01:18.874Z,23.87
2019-03-24T19:06:34.980Z,26.03
2019-03-24T19:12:05.779Z,24.07
2019-03-24T19:14:41.172Z,24.47
2019-03-24T19:17:22.630Z,25.33
2019-03-24T19:19:55.376Z,24.70
2019-03-24T19:22:33.266Z,24.73
2019-03-24T19:24:59.175Z,24.17
2019-03-24T19:27:38.836Z,24.40
2019-03-24T19:30:11.111Z,24.03
2019-03-24T19:32:52.159Z,21.20
2019-03-24T19:38:02.243Z,23.67
2019-03-24T19:40:32.472Z,25.20
2019-03-24T19:43:03.003Z,24.07
2019-03-24T19:45:31.423Z,23.27
2019-03-24T19:47:59.854Z,23.67
2019-03-24T19:50:29.794Z,25.47
2019-03-24T19:52:59.491Z,24.50
2019-03-24T19:55:28.201Z,24.00
2019-03-24T19:57:57.646Z,24.33
2019-03-24T20:00:28.245Z,25.27
2019-03-24T20:03:01.150Z,24.60
2019-03-24T20:05:34.701Z,27.33
2019-03-24T20:08:03.314Z,24.87
2019-03-24T20:10:35.732Z,22.87
2019-03-24T20:13:04.499Z,23.47
2019-03-24T20:16:02.092Z,23.53
2019-03-24T20:23:50.063Z,23.03
2019-03-24T20:26:59.500Z,25.97
2019-03-24T20:29:29.686Z,25.77
2019-03-24T20:35:17.794Z,24.43
2019-03-24T20:37:46.065Z,23.87
2019-03-24T20:40:15.065Z,25.87
2019-03-24T20:42:43.435Z,25.77
2019-03-24T20:45:12.124Z,25.83
2019-03-24T20:47:40.730Z,27.33
2019-03-24T20:50:10.356Z,27.03
2019-03-24T20:52:38.455Z,28.03
2019-03-24T20:55:07.222Z,26.00
2019-03-24T20:57:36.466Z,26.87
2019-03-24T21:00:05.930Z,26.60
2019-03-24T21:02:34.281Z,26.90
2019-03-24T21:05:02.861Z,26.53
2019-03-24T21:07:30.854Z,27.17
2019-03-24T21:09:59.392Z,27.47
2019-03-24T21:12:27.545Z,28.17
2019-03-24T21:14:55.621Z,27.17
2019-03-24T21:17:24.514Z,27.57
2019-03-24T21:19:52.783Z,26.57
2019-03-24T21:22:29.844Z,25.47
2019-03-24T21:25:03.483Z,28.40
2019-03-24T21:27:31.817Z,27.63
2019-03-24T21:30:00.453Z,27.50
2019-03-24T21:32:31.920Z,26.27
2019-03-24T21:35:00.860Z,26.83
2019-03-24T21:37:29.431Z,27.00
2019-03-24T21:39:57.986Z,27.50
2019-03-24T21:42:26.813Z,21.73
2019-03-24T21:44:55.973Z,26.30
2019-03-24T21:47:27.109Z,26.20
2019-03-24T21:49:57.352Z,26.03
2019-03-24T21:52:31.115Z,26.57
2019-03-24T21:54:59.630Z,26.47
2019-03-24T21:57:28.546Z,26.60
2019-03-24T21:59:57.901Z,25.63
2019-03-24T22:02:27.624Z,27.50
2019-03-24T22:04:57.656Z,26.30
2019-03-24T22:07:28.011Z,26.60
2019-03-24T22:09:56.371Z,26.93
2019-03-24T22:12:24.422Z,25.23
2019-03-24T22:14:52.617Z,26.60
2019-03-24T22:17:20.832Z,27.47
2019-03-24T22:19:49.056Z,26.73
2019-03-24T22:22:17.255Z,26.10
2019-03-24T22:24:45.384Z,25.90
2019-03-24T22:27:13.246Z,26.30
2019-03-24T22:29:41.693Z,27.53
2019-03-24T22:32:10.208Z,25.43
2019-03-24T22:34:47.524Z,25.57
2019-03-24T22:37:16.512Z,25.83
2019-03-24T22:39:44.890Z,26.20
2019-03-24T22:42:13.883Z,26.40
2019-03-24T22:44:43.426Z,25.70
2019-03-24T22:47:11.778Z,25.73
2019-03-24T22:49:49.888Z,25.90
2019-03-24T22:52:18.043Z,27.10
2019-03-24T22:54:46.088Z,26.73
2019-03-24T22:57:14.178Z,27.20
2019-03-24T22:59:43.304Z,27.03
2019-03-24T23:02:14.863Z,27.03
2019-03-24T23:04:42.987Z,26.57
2019-03-24T23:07:11.085Z,25.97
2019-03-24T23:09:38.996Z,26.50
2019-03-24T23:12:07.049Z,25.93
2019-03-24T23:14:35.263Z,26.00
2019-03-24T23:17:03.395Z,27.27
2019-03-24T23:19:31.378Z,27.30
2019-03-24T23:21:59.638Z,25.17
2019-03-24T23:24:27.776Z,25.70
2019-03-24T23:26:55.848Z,26.47
2019-03-24T23:29:23.903Z,27.43
2019-03-24T23:31:52.026Z,26.70
2019-03-24T23:34:19.916Z,26.40
2019-03-24T23:36:47.819Z,25.57
2019-03-24T23:39:15.752Z,26.67
2019-03-24T23:41:43.961Z,26.53
2019-03-24T23:44:11.898Z,27.93
2019-03-24T23:46:39.730Z,26.93
2019-03-24T23:49:07.547Z,25.60
2019-03-24T23:51:35.483Z,27.00
2019-03-24T23:54:03.313Z,26.97
2019-03-24T23:56:31.273Z,27.07
2019-03-24T23:58:59.115Z,26.60
